createdAt,value
2024-05-09T00:01:38.618Z,10.13
2024-05-09T00:06:40.652Z,11.10
2024-05-09T00:11:42.598Z,10.63
2024-05-09T00:16:44.595Z,12.80
2024-05-09T00:21:46.424Z,10.50
2024-05-09T00:26:48.241Z,11.17
2024-05-09T00:31:50.292Z,12.97
2024-05-09T00:36:52.144Z,9.53
2024-05-09T00:41:53.968Z,11.03
2024-05-09T00:46:57.008Z,9.83
2024-05-09T00:51:59.438Z,10.30
2024-05-09T00:57:03.295Z,9.20
2024-05-09T01:02:06.356Z,10.93
2024-05-09T01:07:08.759Z,10.20
2024-05-09T01:12:10.770Z,11.00
2024-05-09T01:17:13.557Z,10.67
2024-05-09T01:22:15.416Z,10.40
2024-05-09T01:27:18.007Z,12.37
2024-05-09T01:32:20.081Z,14.80
2024-05-09T01:37:22.010Z,12.30
2024-05-09T01:42:23.869Z,11.50
2024-05-09T01:47:26.017Z,13.53
2024-05-09T01:52:28.473Z,15.73
2024-05-09T01:57:30.260Z,15.13
2024-05-09T02:02:32.189Z,15.57
2024-05-09T02:07:35.464Z,14.90
2024-05-09T02:12:37.470Z,12.23
2024-05-09T02:17:39.418Z,13.17
2024-05-09T02:22:41.314Z,12.73
2024-05-09T02:27:43.136Z,12.30
2024-05-09T02:32:45.087Z,14.23
2024-05-09T02:37:47.543Z,13.60
2024-05-09T02:42:49.374Z,13.20
2024-05-09T02:47:51.318Z,16.87
2024-05-09T02:52:53.333Z,14.77
2024-05-09T02:57:55.177Z,16.27
2024-05-09T03:02:57.096Z,13.17
2024-05-09T03:07:59.051Z,14.27
2024-05-09T03:13:05.022Z,13.37
2024-05-09T03:18:07.356Z,12.37
2024-05-09T03:23:10.318Z,14.20
2024-05-09T03:28:12.398Z,13.37
2024-05-09T03:33:17.436Z,12.63
2024-05-09T03:38:20.756Z,15.27
2024-05-09T03:43:22.601Z,16.17
2024-05-09T03:48:24.662Z,13.30
2024-05-09T03:53:28.168Z,13.43
2024-05-09T03:58:30.070Z,13.90
2024-05-09T04:03:32.062Z,14.03
2024-05-09T04:08:34.065Z,16.30
2024-05-09T04:13:36.024Z,17.67
2024-05-09T04:18:38.119Z,14.00
2024-05-09T04:23:40.644Z,15.53
2024-05-09T04:28:42.499Z,13.57
2024-05-09T04:33:44.415Z,15.43
2024-05-09T04:38:46.480Z,14.87
2024-05-09T04:43:51.013Z,13.43
2024-05-09T04:48:54.019Z,12.17
2024-05-09T04:53:55.987Z,13.70
2024-05-09T04:58:57.859Z,12.13
2024-05-09T05:03:59.789Z,15.03
2024-05-09T05:09:01.886Z,11.93
2024-05-09T05:14:03.917Z,12.93
2024-05-09T05:19:10.194Z,13.30
2024-05-09T05:24:13.480Z,12.27
2024-05-09T05:29:16.486Z,13.70
2024-05-09T05:34:19.595Z,15.97
2024-05-09T05:39:21.403Z,13.27
2024-05-09T05:44:23.232Z,13.67
2024-05-09T05:49:26.282Z,16.23
2024-05-09T05:54:28.259Z,14.67
2024-05-09T05:59:30.540Z,19.03
2024-05-09T06:04:32.885Z,22.03
2024-05-09T06:09:34.839Z,18.13
2024-05-09T06:14:37.045Z,20.03
2024-05-09T06:19:39.015Z,24.90
2024-05-09T06:24:40.886Z,20.20
2024-05-09T06:29:42.719Z,19.90
2024-05-09T06:34:46.357Z,19.10
2024-05-09T06:39:48.289Z,22.03
2024-05-09T06:44:50.091Z,21.87
2024-05-09T06:49:51.935Z,21.20
2024-05-09T06:54:53.807Z,20.70
2024-05-09T06:59:59.685Z,21.23
2024-05-09T07:05:01.847Z,21.00
2024-05-09T07:10:06.284Z,20.50
2024-05-09T07:15:09.607Z,19.40
2024-05-09T07:20:19.465Z,20.23
2024-05-09T07:25:25.193Z,22.33
2024-05-09T07:30:33.103Z,20.33
2024-05-09T07:35:36.510Z,18.87
2024-05-09T07:40:39.378Z,17.07
2024-05-09T07:45:50.581Z,21.07
2024-05-09T07:52:39.233Z,17.77
2024-05-09T07:56:19.139Z,18.30
2024-05-09T08:01:26.364Z,20.43
2024-05-09T08:06:28.666Z,19.07
2024-05-09T08:11:32.506Z,17.33
2024-05-09T08:16:34.388Z,17.93
2024-05-09T08:21:36.232Z,10.53
2024-05-09T08:26:38.194Z,10.77
2024-05-09T08:31:40.243Z,10.50
2024-05-09T08:36:42.348Z,11.43
2024-05-09T08:41:53.762Z,13.87
2024-05-09T08:46:56.521Z,13.40
2024-05-09T08:51:58.465Z,14.70
2024-05-09T08:57:01.147Z,10.93
2024-05-09T09:02:04.592Z,11.37
2024-05-09T09:07:06.963Z,12.87
2024-05-09T09:12:10.607Z,10.47
2024-05-09T09:17:16.284Z,11.87
2024-05-09T09:22:19.857Z,12.17
2024-05-09T09:27:22.428Z,10.73
2024-05-09T09:32:28.312Z,11.70
2024-05-09T09:37:30.347Z,11.07
2024-05-09T09:42:35.423Z,11.33
2024-05-09T09:47:39.979Z,10.57
2024-05-09T09:52:41.983Z,11.57
2024-05-09T09:57:49.197Z,11.90
2024-05-09T10:02:51.007Z,13.23
2024-05-09T10:07:54.539Z,11.90
2024-05-09T10:13:00.320Z,10.50
2024-05-09T10:18:08.482Z,11.70
2024-05-09T10:23:32.482Z,12.43
2024-05-09T10:28:36.891Z,11.37
2024-05-09T10:33:52.689Z,10.77
2024-05-09T10:38:55.636Z,10.20
2024-05-09T10:43:57.471Z,11.73
2024-05-09T10:49:01.671Z,9.13
2024-05-09T10:54:05.646Z,12.33
2024-05-09T10:59:07.434Z,11.07
2024-05-09T11:04:09.635Z,10.43
2024-05-09T11:09:11.760Z,10.43
2024-05-09T11:14:14.271Z,8.70
2024-05-09T11:19:20.240Z,9.73
2024-05-09T11:24:22.993Z,9.50
2024-05-09T11:29:39.851Z,10.30
2024-05-09T11:34:42.413Z,10.63
2024-05-09T11:39:44.406Z,8.87
2024-05-09T11:44:46.291Z,9.07
2024-05-09T11:49:48.323Z,8.50
2024-05-09T11:54:50.290Z,8.60
2024-05-09T11:59:52.118Z,10.43
2024-05-09T12:04:54.104Z,10.43
2024-05-09T12:09:56.018Z,10.30
2024-05-09T12:14:57.853Z,9.50
2024-05-09T12:19:59.645Z,8.93
2024-05-09T12:25:04.734Z,9.87
2024-05-09T12:30:11.280Z,9.17
2024-05-09T12:35:13.397Z,8.23
2024-05-09T12:40:22.959Z,14.70
2024-05-09T12:45:33.418Z,9.23
2024-05-09T12:50:36.302Z,8.87
2024-05-09T12:55:45.124Z,11.13
2024-05-09T13:00:55.278Z,8.97
2024-05-09T13:05:57.344Z,10.40
2024-05-09T13:10:59.554Z,7.97
2024-05-09T13:16:01.538Z,10.27
2024-05-09T13:21:03.460Z,7.47
2024-05-09T13:26:05.437Z,8.90
2024-05-09T13:31:07.316Z,11.30
2024-05-09T13:36:09.142Z,10.13
2024-05-09T13:41:11.678Z,11.20
2024-05-09T13:46:13.611Z,8.67
2024-05-09T13:51:15.411Z,7.30
2024-05-09T13:56:17.296Z,8.20
2024-05-09T14:01:19.345Z,7.97
2024-05-09T14:06:21.711Z,9.23
2024-05-09T14:11:23.658Z,8.23
2024-05-09T14:16:26.662Z,9.80
2024-05-09T14:21:28.628Z,8.40
2024-05-09T14:26:30.476Z,9.17
2024-05-09T14:31:32.983Z,8.80
2024-05-09T14:36:35.628Z,9.13
2024-05-09T14:41:39.050Z,8.43
2024-05-09T14:46:41.117Z,8.03
2024-05-09T14:51:48.023Z,7.63
2024-05-09T14:56:50.982Z,8.77
2024-05-09T15:01:52.944Z,8.27
2024-05-09T15:06:54.932Z,10.77
2024-05-09T15:11:56.870Z,8.07
2024-05-09T15:16:58.783Z,7.70
2024-05-09T15:22:00.800Z,8.13
2024-05-09T15:27:02.756Z,7.80
2024-05-09T15:32:04.921Z,8.10
2024-05-09T15:37:07.443Z,7.53
2024-05-09T15:42:09.341Z,8.80
2024-05-09T15:47:11.532Z,7.90
2024-05-09T15:52:17.688Z,6.90
2024-05-09T15:57:19.729Z,11.93
2024-05-09T16:02:21.741Z,7.17
2024-05-09T16:07:24.761Z,9.20
2024-05-09T16:12:26.682Z,9.33
2024-05-09T16:17:28.735Z,7.80
2024-05-09T16:22:31.256Z,9.70
2024-05-09T16:27:33.077Z,8.03
2024-05-09T16:32:35.261Z,7.10
2024-05-09T16:37:37.305Z,7.50
2024-05-09T16:42:39.137Z,7.53
2024-05-09T16:47:41.183Z,7.73
2024-05-09T16:52:43.276Z,8.47
2024-05-09T16:57:45.181Z,8.37
2024-05-09T17:02:47.114Z,12.53
2024-05-09T17:07:49.924Z,7.27
2024-05-09T17:12:51.793Z,9.03
2024-05-09T17:17:53.762Z,9.17
2024-05-09T17:22:56.000Z,11.50
2024-05-09T17:28:05.224Z,7.57
2024-05-09T17:33:09.286Z,7.67
2024-05-09T17:38:12.146Z,9.07
2024-05-09T17:43:13.991Z,7.77
2024-05-09T17:48:17.095Z,8.23
2024-05-09T17:53:20.116Z,7.20
2024-05-09T17:58:22.432Z,9.93
2024-05-09T18:03:24.317Z,7.90
2024-05-09T18:08:26.150Z,8.90
2024-05-09T18:13:29.039Z,9.20
2024-05-09T18:18:31.018Z,9.67
2024-05-09T18:23:32.887Z,8.30
2024-05-09T18:28:35.330Z,8.70
2024-05-09T18:33:37.403Z,7.60
2024-05-09T18:38:39.663Z,7.63
2024-05-09T18:43:45.211Z,8.00
2024-05-09T18:48:50.487Z,9.23
2024-05-09T18:53:54.736Z,7.87
2024-05-09T18:58:56.563Z,11.70
2024-05-09T19:03:58.496Z,8.77
2024-05-09T19:09:00.346Z,8.20
2024-05-09T19:14:04.476Z,11.13
2024-05-09T19:19:06.698Z,15.17
2024-05-09T19:24:08.595Z,11.57
2024-05-09T19:29:10.458Z,11.70
2024-05-09T19:34:12.263Z,10.17
2024-05-09T19:39:14.102Z,8.80
2024-05-09T19:44:15.930Z,9.50
2024-05-09T19:49:17.941Z,15.80
2024-05-09T19:54:20.238Z,12.27
2024-05-09T19:59:22.053Z,12.20
2024-05-09T20:04:24.189Z,11.60
2024-05-09T20:09:26.077Z,12.30
2024-05-09T20:14:27.902Z,11.73
2024-05-09T20:19:29.846Z,10.90
2024-05-09T20:24:31.877Z,13.07
2024-05-09T20:29:33.747Z,13.90
2024-05-09T20:34:36.548Z,13.27
2024-05-09T20:39:38.485Z,12.30
2024-05-09T20:44:40.345Z,11.97
2024-05-09T20:49:42.368Z,12.77
2024-05-09T20:54:44.276Z,14.70
2024-05-09T20:59:46.100Z,13.37
2024-05-09T21:04:48.302Z,14.20
2024-05-09T21:09:50.281Z,10.77
2024-05-09T21:14:52.116Z,7.63
2024-05-09T21:19:53.944Z,9.77
2024-05-09T21:24:55.816Z,8.60
2024-05-09T21:29:57.612Z,8.40
2024-05-09T21:34:59.410Z,8.47
2024-05-09T21:40:06.814Z,8.47
2024-05-09T21:45:10.824Z,8.13
2024-05-09T21:50:22.151Z,8.43
2024-05-09T21:55:25.422Z,8.03
2024-05-09T22:00:34.748Z,9.13
2024-05-09T22:05:43.428Z,7.90
2024-05-09T22:10:45.483Z,7.70
2024-05-09T22:15:47.375Z,10.37
2024-05-09T22:20:49.449Z,10.37
2024-05-09T22:25:51.246Z,8.43
2024-05-09T22:30:55.482Z,9.77
2024-05-09T22:35:57.440Z,9.00
2024-05-09T22:40:59.294Z,8.53
2024-05-09T22:46:03.205Z,9.63
2024-05-09T22:51:05.219Z,10.63
2024-05-09T22:56:07.345Z,10.80
2024-05-09T23:01:15.295Z,13.23
2024-05-09T23:06:17.201Z,10.13
2024-05-09T23:11:19.228Z,9.27
2024-05-09T23:16:21.197Z,11.03
2024-05-09T23:21:23.507Z,10.50
2024-05-09T23:26:25.451Z,10.87
2024-05-09T23:31:27.487Z,10.47
2024-05-09T23:36:29.839Z,11.20
2024-05-09T23:41:31.620Z,11.67
2024-05-09T23:46:33.520Z,11.43
2024-05-09T23:51:35.442Z,11.00
2024-05-09T23:56:37.319Z,16.17
